Time;durP1;ratioP1;P1;durP2;ratioP2;P2;SDS_P1;SDS_P2;PMS_P1;PMS_P2;Temp;Humidity;BMP_temperature;BMP_pressure;BME280_temperature;BME280_humidity;BME280_pressure;Samples;Min_cycle;Max_cycle;Signal;HPM_P1;HPM_P2
2022/12/10 00:03:06;;;;;;;62.57;23.97;;;1.10;99.90;;;;;;10323133;28;20068;-86
2022/12/10 00:14:54;;;;;;;68.10;27.55;;;1.10;99.90;;;;;;10315089;28;20054;-86
2022/12/10 00:19:55;;;;;;;73.77;28.23;;;1.20;99.90;;;;;;10322184;28;20030;-87
2022/12/10 00:24:56;;;;;;;65.00;25.40;;;1.20;99.90;;;;;;10323927;28;20050;-85
2022/12/10 00:29:56;;;;;;;61.47;24.93;;;1.20;99.90;;;;;;10322782;28;20481;-86
2022/12/10 00:34:57;;;;;;;59.97;24.57;;;1.20;99.90;;;;;;10321783;28;20180;-88
2022/12/10 00:39:57;;;;;;;66.17;25.83;;;1.20;99.90;;;;;;10321788;28;20541;-85
2022/12/10 00:44:58;;;;;;;72.47;27.63;;;1.20;99.90;;;;;;10323271;28;20042;-86
2022/12/10 00:49:58;;;;;;;57.53;25.73;;;1.20;99.90;;;;;;10322382;28;20484;-89
2022/12/10 00:54:59;;;;;;;64.40;26.67;;;1.10;99.90;;;;;;10322767;28;20064;-86
2022/12/10 00:59:59;;;;;;;64.93;26.63;;;1.10;99.90;;;;;;10320624;28;20100;-85
2022/12/10 01:05:00;;;;;;;67.27;25.87;;;1.10;99.90;;;;;;10320016;28;20521;-87
2022/12/10 01:10:01;;;;;;;65.37;25.23;;;1.10;99.90;;;;;;10320338;28;20038;-85
2022/12/10 01:15:02;;;;;;;58.83;24.93;;;1.10;99.90;;;;;;10320919;28;20593;-90
2022/12/10 01:20:03;;;;;;;66.37;24.70;;;1.10;99.90;;;;;;10320601;28;20027;-85
2022/12/10 01:25:04;;;;;;;57.97;24.77;;;1.10;99.90;;;;;;10320406;28;20094;-88
2022/12/10 01:30:05;;;;;;;67.30;27.20;;;1.10;99.90;;;;;;10320460;28;20042;-88
2022/12/10 01:35:06;;;;;;;53.10;23.90;;;1.10;99.90;;;;;;10318158;28;20048;-86
2022/12/10 01:40:07;;;;;;;58.10;22.33;;;1.10;99.90;;;;;;10320550;28;20061;-85
2022/12/10 01:45:11;;;;;;;58.87;23.77;;;1.10;99.90;;;;;;10318036;28;20045;-89
2022/12/10 01:50:12;;;;;;;59.63;22.10;;;1.10;99.90;;;;;;10318675;28;20061;-84
2022/12/10 01:55:43;;;;;;;63.50;22.73;;;1.10;99.90;;;;;;10317948;28;20053;-84
2022/12/10 02:01:06;;;;;;;59.07;21.37;;;1.10;99.90;;;;;;10318812;28;20030;-84
2022/12/10 02:06:28;;;;;;;57.10;21.07;;;1.20;99.90;;;;;;10318863;28;20026;-84
2022/12/10 02:11:37;;;;;;;58.43;21.07;;;1.10;99.90;;;;;;10319342;28;20038;-84
2022/12/10 02:16:43;;;;;;;56.93;21.43;;;1.10;99.90;;;;;;10317596;28;20053;-87
2022/12/10 02:21:47;;;;;;;57.50;20.97;;;1.10;99.90;;;;;;10308261;28;20498;-84
2022/12/10 02:27:08;;;;;;;57.93;21.30;;;1.10;99.90;;;;;;10315213;28;20060;-87
2022/12/10 02:32:16;;;;;;;58.73;20.93;;;1.10;99.90;;;;;;10318031;28;20042;-83
2022/12/10 02:37:31;;;;;;;56.20;20.97;;;1.20;99.90;;;;;;10319053;28;20066;-86
2022/12/10 02:42:38;;;;;;;46.17;19.80;;;1.20;99.90;;;;;;10316964;28;20616;-84
2022/12/10 02:47:39;;;;;;;56.07;21.10;;;1.20;99.90;;;;;;10317558;28;20508;-84
2022/12/10 02:52:40;;;;;;;56.40;21.03;;;1.30;99.90;;;;;;10317332;28;20129;-84
2022/12/10 02:58:25;;;;;;;47.83;18.13;;;1.30;99.90;;;;;;10318077;28;20030;-84
2022/12/10 03:03:38;;;;;;;49.30;20.33;;;1.20;99.90;;;;;;10305373;28;20106;-84
2022/12/10 03:08:51;;;;;;;45.43;19.77;;;1.30;99.90;;;;;;10319520;28;20495;-86
2022/12/10 03:13:57;;;;;;;51.23;19.83;;;1.20;99.90;;;;;;10317985;28;20048;-86
2022/12/10 03:19:02;;;;;;;45.78;18.10;;;1.20;99.90;;;;;;10319466;28;20050;-84
2022/12/10 03:24:04;;;;;;;43.70;16.37;;;1.20;99.90;;;;;;10294588;28;20077;-88
2022/12/10 03:29:17;;;;;;;53.00;20.33;;;1.20;99.90;;;;;;10317862;28;20710;-83
2022/12/10 03:34:18;;;;;;;52.20;20.00;;;1.10;99.90;;;;;;10324751;28;20399;-83
2022/12/10 03:39:18;;;;;;;56.10;21.83;;;1.10;99.90;;;;;;10317293;28;20046;-86
2022/12/10 03:44:30;;;;;;;52.10;20.93;;;1.10;99.90;;;;;;10292825;28;20034;-84
2022/12/10 03:49:31;;;;;;;54.93;19.90;;;1.10;99.90;;;;;;10324471;28;20041;-85
2022/12/10 03:54:31;;;;;;;62.27;21.13;;;1.20;99.90;;;;;;10312450;28;20049;-84
2022/12/10 03:59:32;;;;;;;60.87;22.30;;;1.20;99.90;;;;;;10310130;28;20104;-84
2022/12/10 04:04:32;;;;;;;63.80;23.77;;;1.30;99.90;;;;;;10324214;28;20026;-84
2022/12/10 04:09:33;;;;;;;59.13;21.83;;;1.20;99.90;;;;;;10323709;28;20038;-83
2022/12/10 04:19:52;;;;;;;58.83;22.37;;;1.20;99.90;;;;;;10322092;28;20042;-84
2022/12/10 04:30:12;;;;;;;51.03;19.90;;;1.20;99.90;;;;;;10323539;28;20494;-84
2022/12/10 04:35:13;;;;;;;70.43;26.60;;;1.20;99.90;;;;;;10322906;28;20046;-82
2022/12/10 04:40:13;;;;;;;67.40;26.00;;;1.20;99.90;;;;;;10322339;28;20117;-83
2022/12/10 04:45:14;;;;;;;66.60;22.77;;;1.20;99.90;;;;;;10319236;28;20031;-84
2022/12/10 04:50:14;;;;;;;61.53;24.17;;;1.30;99.90;;;;;;10321345;28;20061;-86
2022/12/10 04:55:17;;;;;;;80.87;25.80;;;1.20;99.90;;;;;;10322135;28;20038;-83
2022/12/10 05:00:17;;;;;;;70.93;24.83;;;1.20;99.90;;;;;;10320605;28;20030;-84
2022/12/10 05:05:18;;;;;;;62.77;23.07;;;1.30;99.90;;;;;;10323619;28;20430;-84
2022/12/10 05:10:18;;;;;;;71.53;25.07;;;1.30;99.90;;;;;;10322763;28;20108;-84
2022/12/10 05:15:19;;;;;;;63.93;22.20;;;1.20;99.90;;;;;;10321555;28;20089;-85
2022/12/10 05:20:19;;;;;;;65.43;23.60;;;1.20;99.90;;;;;;10320645;28;20085;-84
2022/12/10 05:25:20;;;;;;;71.37;25.07;;;1.20;99.90;;;;;;10321674;28;20133;-85
2022/12/10 05:30:21;;;;;;;56.60;20.83;;;1.20;99.90;;;;;;10319326;28;20034;-86
2022/12/10 05:35:21;;;;;;;57.77;21.83;;;1.20;99.90;;;;;;10320947;28;20038;-84
2022/12/10 05:40:22;;;;;;;55.77;20.23;;;1.20;99.90;;;;;;10321390;28;20038;-85
2022/12/10 05:45:23;;;;;;;63.87;22.40;;;1.20;99.90;;;;;;10320458;28;20030;-85
2022/12/10 05:50:23;;;;;;;69.03;22.50;;;1.20;99.90;;;;;;10320718;28;20022;-84
2022/12/10 05:55:24;;;;;;;65.43;23.07;;;1.10;99.90;;;;;;10320388;28;20042;-87
2022/12/10 06:00:26;;;;;;;59.23;22.93;;;1.20;99.90;;;;;;10320710;28;20038;-84
2022/12/10 06:05:27;;;;;;;58.10;20.17;;;1.10;99.90;;;;;;10306814;28;20022;-83
2022/12/10 06:10:28;;;;;;;63.77;23.33;;;1.10;99.90;;;;;;10320596;28;20053;-85
2022/12/10 06:15:28;;;;;;;68.07;24.23;;;1.10;99.90;;;;;;10318139;28;20600;-84
2022/12/10 06:20:29;;;;;;;69.33;23.13;;;1.10;99.90;;;;;;10320196;28;20025;-83
2022/12/10 06:25:29;;;;;;;71.50;22.33;;;1.10;99.90;;;;;;10319275;28;20435;-83
2022/12/10 06:30:30;;;;;;;59.77;21.20;;;1.10;99.90;;;;;;10319000;28;20074;-82
2022/12/10 06:35:30;;;;;;;52.77;21.17;;;1.10;99.90;;;;;;10318602;28;20038;-84
2022/12/10 06:40:31;;;;;;;55.00;20.63;;;1.10;99.90;;;;;;10318876;28;20512;-87
2022/12/10 06:45:32;;;;;;;53.63;21.07;;;1.10;99.90;;;;;;10318278;28;20033;-88
2022/12/10 06:50:32;;;;;;;68.30;21.83;;;1.10;99.90;;;;;;10310490;28;20037;-84
2022/12/10 06:55:33;;;;;;;58.83;21.17;;;1.10;99.90;;;;;;10311920;28;20621;-83
2022/12/10 07:00:33;;;;;;;57.47;22.13;;;1.20;99.90;;;;;;10316458;28;20034;-84
2022/12/10 07:05:34;;;;;;;67.60;22.90;;;1.20;99.90;;;;;;10320375;28;20033;-84
2022/12/10 07:10:36;;;;;;;64.87;24.20;;;1.20;99.90;;;;;;10320627;28;20113;-84
2022/12/10 07:15:37;;;;;;;67.03;23.33;;;1.20;99.90;;;;;;10323638;28;20037;-84
2022/12/10 07:20:37;;;;;;;68.23;26.83;;;1.20;99.90;;;;;;10325583;28;20037;-83
2022/12/10 07:25:38;;;;;;;68.97;25.57;;;1.20;99.90;;;;;;10323963;28;20058;-84
2022/12/10 07:30:38;;;;;;;64.90;23.43;;;1.20;99.90;;;;;;10324989;28;20088;-88
2022/12/10 07:35:39;;;;;;;77.57;28.03;;;1.10;99.90;;;;;;10324175;28;20676;-83
2022/12/10 07:40:40;;;;;;;91.83;27.87;;;1.10;99.90;;;;;;10325939;28;20050;-85
2022/12/10 07:45:41;;;;;;;95.03;29.17;;;1.10;99.90;;;;;;10323411;28;20037;-82
2022/12/10 07:50:41;;;;;;;104.37;32.57;;;1.00;99.90;;;;;;10323334;28;20138;-83
2022/12/10 07:55:42;;;;;;;90.73;30.33;;;1.10;99.90;;;;;;10323031;28;20046;-85
2022/12/10 08:00:42;;;;;;;99.23;32.13;;;1.10;99.90;;;;;;10324820;28;20037;-84
2022/12/10 08:05:43;;;;;;;84.93;27.60;;;1.10;99.90;;;;;;10324012;28;20038;-83
2022/12/10 08:10:43;;;;;;;106.87;32.43;;;1.10;99.90;;;;;;10321743;28;20026;-87
2022/12/10 08:15:44;;;;;;;105.53;29.67;;;1.20;99.90;;;;;;10322554;28;20700;-87
2022/12/10 08:20:44;;;;;;;109.27;34.23;;;1.20;99.90;;;;;;10323033;28;20038;-85
2022/12/10 08:25:45;;;;;;;104.37;30.97;;;1.30;99.90;;;;;;10316278;28;20688;-86
2022/12/10 08:30:47;;;;;;;98.53;29.27;;;1.20;99.90;;;;;;10310692;28;20037;-84
2022/12/10 08:35:47;;;;;;;103.73;31.73;;;1.20;99.90;;;;;;10322016;28;20096;-89
2022/12/10 08:40:48;;;;;;;103.47;35.27;;;1.20;99.90;;;;;;10314455;28;20038;-84
2022/12/10 08:45:48;;;;;;;99.23;30.67;;;1.20;99.90;;;;;;10312401;28;20042;-84
2022/12/10 08:50:49;;;;;;;114.47;32.47;;;1.20;99.90;;;;;;10321598;28;20065;-84
2022/12/10 08:55:54;;;;;;;107.77;32.73;;;1.20;99.90;;;;;;10315203;28;20046;-85
2022/12/10 09:00:55;;;;;;;106.40;33.80;;;1.30;99.90;;;;;;10310644;28;20118;-84
2022/12/10 09:05:55;;;;;;;118.40;34.80;;;1.40;99.90;;;;;;10321282;28;20140;-84
2022/12/10 09:10:56;;;;;;;124.47;37.43;;;1.40;99.90;;;;;;10320915;28;20113;-86
2022/12/10 09:15:57;;;;;;;123.77;35.97;;;1.50;99.90;;;;;;10307960;28;20486;-85
2022/12/10 09:20:57;;;;;;;124.27;36.77;;;1.40;99.90;;;;;;10321432;28;20026;-83
2022/12/10 09:25:58;;;;;;;140.23;39.67;;;1.40;99.90;;;;;;10319810;28;20058;-84
2022/12/10 09:31:00;;;;;;;128.80;37.73;;;1.40;99.90;;;;;;10319814;28;20034;-84
2022/12/10 09:36:05;;;;;;;137.90;41.57;;;1.30;99.90;;;;;;10316901;28;20054;-83
2022/12/10 09:41:30;;;;;;;146.07;40.60;;;1.40;99.90;;;;;;10320239;28;20415;-83
2022/12/10 09:46:54;;;;;;;131.07;39.93;;;1.30;99.90;;;;;;10319244;28;20026;-85
2022/12/10 09:51:59;;;;;;;137.77;36.67;;;1.30;99.90;;;;;;10319472;28;20121;-84
2022/12/10 09:57:01;;;;;;;144.07;37.90;;;1.20;99.90;;;;;;10318313;28;20541;-84
2022/12/10 10:02:29;;;;;;;148.67;39.43;;;1.20;99.90;;;;;;10310136;28;20057;-86
2022/12/10 10:07:32;;;;;;;145.30;39.43;;;1.20;99.90;;;;;;10318333;28;20033;-85
2022/12/10 10:12:34;;;;;;;156.67;43.77;;;1.20;99.90;;;;;;10317747;28;20034;-85
2022/12/10 10:17:37;;;;;;;137.60;40.43;;;1.20;99.90;;;;;;10317765;28;20062;-84
2022/12/10 10:22:38;;;;;;;155.37;41.97;;;1.20;99.90;;;;;;10317282;28;20504;-84
2022/12/10 10:27:38;;;;;;;143.00;41.20;;;1.30;99.90;;;;;;10318480;28;20039;-85
2022/12/10 10:32:39;;;;;;;368.13;140.13;;;1.30;99.90;;;;;;10308125;28;20586;-84
2022/12/10 10:37:42;;;;;;;222.57;69.37;;;1.30;99.90;;;;;;10318858;28;20121;-84
2022/12/10 10:42:45;;;;;;;227.53;70.10;;;1.30;99.90;;;;;;10323086;28;20084;-85
2022/12/10 10:47:46;;;;;;;168.97;50.73;;;1.30;99.90;;;;;;10325018;28;20414;-84
2022/12/10 10:52:46;;;;;;;158.57;42.07;;;1.30;99.90;;;;;;10325683;28;20049;-85
2022/12/10 10:57:51;;;;;;;167.70;59.23;;;1.40;99.90;;;;;;10320063;28;20048;-86
2022/12/10 11:02:52;;;;;;;157.30;57.10;;;1.50;99.90;;;;;;10325794;28;20042;-83
2022/12/10 11:08:07;;;;;;;163.03;53.17;;;1.50;99.90;;;;;;10313419;28;20030;-85
2022/12/10 11:13:29;;;;;;;117.07;39.10;;;1.40;99.90;;;;;;10325869;28;20037;-87
2022/12/10 11:18:37;;;;;;;131.00;38.97;;;1.30;99.90;;;;;;10312185;28;20722;-85
2022/12/10 11:23:40;;;;;;;134.13;44.23;;;1.30;99.90;;;;;;10324250;28;20108;-85
2022/12/10 11:28:59;;;;;;;149.70;45.30;;;1.20;99.90;;;;;;10316406;28;20531;-86
2022/12/10 11:34:24;;;;;;;631.37;250.33;;;1.20;99.90;;;;;;10335713;28;20026;-85
2022/12/10 11:39:44;;;;;;;118.77;38.33;;;1.20;99.90;;;;;;10316447;28;20034;-86
2022/12/10 11:45:13;;;;;;;208.20;83.00;;;1.20;99.90;;;;;;10324866;28;20030;-88
2022/12/10 11:50:46;;;;;;;176.07;64.90;;;1.20;99.90;;;;;;10320619;28;20025;-84
2022/12/10 11:55:58;;;;;;;145.00;44.87;;;1.20;99.90;;;;;;10318487;28;20042;-82
2022/12/10 12:01:16;;;;;;;140.93;42.80;;;1.30;99.90;;;;;;10321143;28;20041;-83
2022/12/10 12:06:47;;;;;;;498.20;201.63;;;1.20;99.90;;;;;;10314814;28;20058;-86
2022/12/10 12:12:00;;;;;;;182.47;53.13;;;1.20;99.90;;;;;;10336024;23;20038;-83
2022/12/10 12:17:24;;;;;;;873.27;331.23;;;1.20;99.90;;;;;;10363028;28;20038;-87
2022/12/10 12:22:33;;;;;;;142.90;44.93;;;1.20;99.90;;;;;;10356298;28;20040;-85
2022/12/10 12:27:41;;;;;;;119.63;38.97;;;1.10;99.90;;;;;;10359247;28;20025;-86
2022/12/10 12:33:10;;;;;;;137.43;41.90;;;1.10;99.90;;;;;;10353286;28;20795;-84
2022/12/10 12:38:23;;;;;;;187.53;67.13;;;1.10;99.90;;;;;;10362169;28;20042;-88
2022/12/10 12:43:55;;;;;;;127.33;41.00;;;1.10;99.90;;;;;;10359657;28;20026;-86
2022/12/10 12:49:18;;;;;;;228.70;92.63;;;1.10;99.90;;;;;;10356690;28;20030;-85
2022/12/10 12:54:19;;;;;;;163.70;43.80;;;1.00;99.90;;;;;;10344226;28;20383;-85
2022/12/10 12:59:22;;;;;;;246.70;74.33;;;1.00;99.90;;;;;;10358810;28;20034;-86
2022/12/10 13:04:24;;;;;;;216.77;62.80;;;1.00;99.90;;;;;;10335263;28;20045;-87
2022/12/10 13:09:27;;;;;;;194.07;50.97;;;1.10;99.90;;;;;;10312244;28;20565;-84
2022/12/10 13:14:54;;;;;;;166.30;43.13;;;1.00;99.90;;;;;;10321848;28;20116;-85
2022/12/10 13:20:24;;;;;;;148.97;39.40;;;1.00;99.90;;;;;;10319717;28;20041;-82
2022/12/10 13:25:42;;;;;;;188.93;62.07;;;1.00;99.90;;;;;;10324608;28;20043;-83
2022/12/10 13:30:42;;;;;;;179.70;65.00;;;1.00;99.90;;;;;;10339369;28;20033;-87
2022/12/10 13:35:57;;;;;;;255.23;90.93;;;1.00;99.90;;;;;;10319312;28;20494;-83
2022/12/10 13:46:32;;;;;;;352.13;149.87;;;0.90;99.90;;;;;;10318816;28;20120;-87
2022/12/10 13:51:46;;;;;;;191.30;51.90;;;1.00;99.90;;;;;;10323954;28;20065;-85
2022/12/10 13:57:07;;;;;;;206.33;52.07;;;0.90;99.90;;;;;;10333772;28;20029;-84
2022/12/10 14:02:36;;;;;;;310.60;101.43;;;0.90;99.90;;;;;;10339708;28;20029;-82
2022/12/10 14:07:37;;;;;;;225.80;60.33;;;0.90;99.90;;;;;;10318601;28;20018;-82
2022/12/10 14:12:41;;;;;;;157.40;45.43;;;0.90;99.90;;;;;;10317693;28;20062;-83
2022/12/10 14:17:44;;;;;;;399.67;170.60;;;0.90;99.90;;;;;;10318271;28;20169;-82
2022/12/10 14:22:47;;;;;;;1001.63;538.00;;;0.90;99.90;;;;;;10333595;28;20248;-83
2022/12/10 14:27:52;;;;;;;183.27;57.37;;;0.90;99.90;;;;;;10328352;28;20033;-85
2022/12/10 14:32:58;;;;;;;381.05;148.27;;;0.90;99.90;;;;;;10342256;28;20030;-85
2022/12/10 14:37:59;;;;;;;;;;;0.90;99.90;;;;;;10324235;28;20034;-83
2022/12/10 14:43:16;;;;;;;162.83;43.83;;;0.90;99.90;;;;;;10335399;28;19925;-83
2022/12/10 14:48:18;;;;;;;147.07;43.60;;;0.90;99.90;;;;;;10330870;28;20121;-86
2022/12/10 14:53:28;;;;;;;162.70;44.40;;;0.90;99.90;;;;;;10327379;28;20419;-81
2022/12/10 14:58:47;;;;;;;151.20;41.87;;;0.90;99.90;;;;;;10327318;28;20027;-85
2022/12/10 15:03:52;;;;;;;137.33;39.27;;;0.80;99.90;;;;;;10317684;28;20084;-81
2022/12/10 15:08:55;;;;;;;;;;;0.80;99.90;;;;;;10330469;28;20042;-83
2022/12/10 15:14:01;;;;;;;148.70;45.67;;;0.80;99.90;;;;;;10318033;28;20024;-81
2022/12/10 15:19:29;;;;;;;153.63;47.42;;;0.80;99.90;;;;;;10310645;28;20642;-83
2022/12/10 15:24:41;;;;;;;140.87;43.10;;;0.80;99.90;;;;;;10322340;28;20046;-80
2022/12/10 15:29:41;;;;;;;185.23;55.73;;;0.80;99.90;;;;;;10329207;28;20041;-83
2022/12/10 15:34:48;;;;;;;139.77;45.40;;;0.80;99.90;;;;;;10333805;28;20038;-80
2022/12/10 15:39:58;;;;;;;170.43;51.37;;;0.80;99.90;;;;;;10333244;28;20921;-80
2022/12/10 15:45:04;;;;;;;224.10;85.60;;;0.80;99.90;;;;;;10327580;28;20057;-83
2022/12/10 15:50:05;;;;;;;251.00;81.97;;;0.80;99.90;;;;;;10327304;28;20033;-81
2022/12/10 15:55:07;;;;;;;211.67;57.90;;;0.80;99.90;;;;;;10325269;28;20394;-83
2022/12/10 16:00:29;;;;;;;221.57;54.50;;;0.80;99.90;;;;;;10320126;28;20030;-79
2022/12/10 16:05:32;;;;;;;223.00;63.60;;;0.80;99.90;;;;;;10336441;28;20034;-83
2022/12/10 16:10:33;;;;;;;216.93;65.23;;;0.90;99.90;;;;;;10334824;28;20026;-82
2022/12/10 16:15:51;;;;;;;159.20;44.20;;;0.90;99.90;;;;;;10329588;28;20058;-82
2022/12/10 16:20:51;;;;;;;141.83;37.80;;;0.80;99.90;;;;;;10324625;28;20030;-84
2022/12/10 16:25:52;;;;;;;140.27;36.83;;;0.80;99.90;;;;;;10333297;28;20504;-83
2022/12/10 16:30:58;;;;;;;136.70;39.67;;;0.70;99.90;;;;;;10339820;28;20104;-84
2022/12/10 16:36:01;;;;;;;;;;;0.70;99.90;;;;;;10347920;22;20093;-80
2022/12/10 16:41:06;;;;;;;150.50;39.03;;;0.70;99.90;;;;;;10352781;28;19913;-83
2022/12/10 16:46:10;;;;;;;169.57;46.23;;;0.80;99.90;;;;;;10361635;28;20113;-82
2022/12/10 16:51:30;;;;;;;157.60;42.97;;;0.80;99.90;;;;;;10360522;28;20123;-82
2022/12/10 16:56:31;;;;;;;190.87;47.83;;;0.80;99.90;;;;;;10362511;28;20030;-83
2022/12/10 17:01:32;;;;;;;157.43;39.93;;;0.80;99.90;;;;;;10344198;28;20082;-85
2022/12/10 17:06:33;;;;;;;145.60;40.00;;;0.80;99.90;;;;;;10319586;28;20026;-81
2022/12/10 17:11:50;;;;;;;135.67;38.23;;;0.70;99.90;;;;;;10320877;28;20092;-80
2022/12/10 17:16:52;;;;;;;178.60;42.77;;;0.70;99.90;;;;;;10316205;28;20042;-82
2022/12/10 17:21:54;;;;;;;257.40;74.50;;;0.60;99.90;;;;;;10314272;28;20030;-80
2022/12/10 17:26:59;;;;;;;174.53;49.40;;;0.70;99.90;;;;;;10318600;28;20030;-85
2022/12/10 17:32:00;;;;;;;135.75;42.90;;;0.60;99.90;;;;;;10320038;28;20113;-81
2022/12/10 17:37:00;;;;;;;160.27;46.90;;;0.60;99.90;;;;;;10318431;28;20100;-80
2022/12/10 17:42:01;;;;;;;259.67;82.83;;;0.70;99.90;;;;;;10320485;28;20121;-82
2022/12/10 17:47:23;;;;;;;177.87;49.40;;;0.60;99.90;;;;;;10318454;28;20038;-83
2022/12/10 17:52:24;;;;;;;510.30;229.23;;;0.70;99.90;;;;;;10321901;28;20034;-79
2022/12/10 17:57:25;;;;;;;214.27;55.23;;;0.70;99.90;;;;;;10313892;28;20104;-80
2022/12/10 18:02:26;;;;;;;266.43;98.13;;;0.70;99.90;;;;;;10318715;28;20429;-80
2022/12/10 18:07:27;;;;;;;266.27;85.77;;;0.70;99.90;;;;;;10312020;28;20030;-84
2022/12/10 18:12:28;;;;;;;160.63;41.50;;;0.70;99.90;;;;;;10316553;28;20034;-81
2022/12/10 18:17:29;;;;;;;259.00;84.13;;;0.70;99.90;;;;;;10318406;28;20557;-83
2022/12/10 18:22:29;;;;;;;236.20;71.80;;;0.70;99.90;;;;;;10307501;28;20022;-86
2022/12/10 18:27:30;;;;;;;288.77;85.27;;;0.70;99.90;;;;;;10318407;28;20117;-81
2022/12/10 18:32:32;;;;;;;267.73;72.60;;;0.70;99.90;;;;;;10309279;28;20057;-81
2022/12/10 18:37:32;;;;;;;377.37;152.17;;;0.70;99.90;;;;;;10315327;28;20755;-82
2022/12/10 18:42:33;;;;;;;251.03;60.40;;;0.70;99.90;;;;;;10317819;28;20034;-81
2022/12/10 18:47:33;;;;;;;212.53;51.57;;;0.80;99.90;;;;;;10317420;28;20026;-82
2022/12/10 18:52:34;;;;;;;179.50;43.67;;;0.70;99.90;;;;;;10318257;28;20018;-82
2022/12/10 18:57:35;;;;;;;178.70;51.00;;;0.80;99.90;;;;;;10307426;28;20642;-85
2022/12/10 19:02:35;;;;;;;223.50;62.77;;;0.70;99.90;;;;;;10311722;28;20027;-80
2022/12/10 19:07:36;;;;;;;236.27;70.60;;;0.70;99.90;;;;;;10311371;28;20022;-82
2022/12/10 19:12:37;;;;;;;214.00;62.73;;;0.70;99.90;;;;;;10311819;28;20062;-82
2022/12/10 19:17:38;;;;;;;174.87;43.70;;;0.70;99.90;;;;;;10320937;28;20948;-81
2022/12/10 19:22:38;;;;;;;176.13;50.70;;;0.70;99.90;;;;;;10317612;28;20065;-81
2022/12/10 19:27:41;;;;;;;152.73;38.63;;;0.70;99.90;;;;;;10322952;28;20061;-81
2022/12/10 19:32:42;;;;;;;156.57;46.87;;;0.70;99.90;;;;;;10318962;28;20612;-80
2022/12/10 19:37:45;;;;;;;141.40;46.87;;;0.70;99.90;;;;;;10317651;28;20133;-81
2022/12/10 19:42:47;;;;;;;118.20;36.67;;;0.70;99.90;;;;;;10322693;28;20133;-80
2022/12/10 19:47:53;;;;;;;173.13;56.37;;;0.60;99.90;;;;;;10313154;28;20761;-81
2022/12/10 19:52:54;;;;;;;194.57;57.22;;;0.60;99.90;;;;;;10322724;28;20066;-79
2022/12/10 19:57:55;;;;;;;154.40;40.07;;;0.70;99.90;;;;;;10318399;28;20060;-81
2022/12/10 20:02:56;;;;;;;154.37;42.43;;;0.60;99.90;;;;;;10316226;28;20019;-82
2022/12/10 20:07:58;;;;;;;165.77;47.30;;;0.60;99.90;;;;;;10321773;28;20057;-85
2022/12/10 20:12:59;;;;;;;129.37;36.80;;;0.60;99.90;;;;;;10321631;28;20144;-80
2022/12/10 20:18:00;;;;;;;149.37;38.70;;;0.60;99.90;;;;;;10323871;28;20449;-80
2022/12/10 20:23:01;;;;;;;189.43;55.87;;;0.70;99.90;;;;;;10322840;28;20037;-83
2022/12/10 20:28:03;;;;;;;153.13;43.00;;;0.60;99.90;;;;;;10319522;28;20069;-81
2022/12/10 20:33:04;;;;;;;153.80;39.10;;;0.60;99.90;;;;;;10321672;28;20038;-80
2022/12/10 20:38:05;;;;;;;158.67;41.63;;;0.60;99.90;;;;;;10323893;28;20422;-80
2022/12/10 20:43:06;;;;;;;164.53;41.97;;;0.70;99.90;;;;;;10318336;28;20042;-83
2022/12/10 20:48:09;;;;;;;148.37;39.83;;;0.60;99.90;;;;;;10318108;28;20042;-82
2022/12/10 20:53:10;;;;;;;153.73;39.30;;;0.60;99.90;;;;;;10309648;28;20030;-80
2022/12/10 20:58:11;;;;;;;171.77;44.70;;;0.70;99.90;;;;;;10312960;28;20701;-81
2022/12/10 21:03:13;;;;;;;175.00;40.43;;;0.70;99.90;;;;;;10314440;28;20724;-80
2022/12/10 21:08:14;;;;;;;160.97;40.77;;;0.60;99.90;;;;;;10317575;28;20038;-81
2022/12/10 21:13:15;;;;;;;133.33;35.00;;;0.60;99.90;;;;;;10316227;28;20069;-80
2022/12/10 21:18:17;;;;;;;135.13;36.80;;;0.60;99.90;;;;;;10319044;28;20117;-80
2022/12/10 21:23:21;;;;;;;139.33;36.97;;;0.70;99.90;;;;;;10314901;28;20116;-79
2022/12/10 21:28:22;;;;;;;131.00;34.80;;;0.60;99.90;;;;;;10316470;28;20038;-79
2022/12/10 21:33:25;;;;;;;148.10;41.37;;;0.60;99.90;;;;;;10311428;28;20061;-81
2022/12/10 21:38:25;;;;;;;123.03;33.13;;;0.70;99.90;;;;;;10304251;28;20065;-81
2022/12/10 21:43:27;;;;;;;116.27;33.17;;;0.60;99.90;;;;;;10316700;28;20556;-80
2022/12/10 21:48:28;;;;;;;115.97;30.90;;;0.60;99.90;;;;;;10313565;28;20080;-81
2022/12/10 21:53:29;;;;;;;109.00;30.57;;;0.60;99.90;;;;;;10308867;28;20085;-80
2022/12/10 21:58:29;;;;;;;121.60;35.20;;;0.60;99.90;;;;;;10313080;28;20502;-82
2022/12/10 22:03:31;;;;;;;156.80;39.93;;;0.60;99.90;;;;;;10291949;28;20321;-82
2022/12/10 22:08:32;;;;;;;153.43;37.77;;;0.60;99.90;;;;;;10291763;28;20043;-79
2022/12/10 22:13:33;;;;;;;161.63;38.03;;;0.60;99.90;;;;;;10280966;28;20486;-80
2022/12/10 22:18:33;;;;;;;143.87;43.27;;;0.70;99.90;;;;;;10285183;28;20039;-82
2022/12/10 22:23:34;;;;;;;135.90;36.00;;;0.60;99.90;;;;;;10282702;28;20039;-81
2022/12/10 22:28:36;;;;;;;155.43;39.50;;;0.60;99.90;;;;;;10292310;28;20153;-80
2022/12/10 22:33:37;;;;;;;122.93;35.73;;;0.60;99.90;;;;;;10293248;28;20023;-80
2022/12/10 22:38:38;;;;;;;114.87;31.00;;;0.60;99.90;;;;;;10304899;28;20050;-82
2022/12/10 22:43:39;;;;;;;113.73;30.73;;;0.60;99.90;;;;;;10290306;28;20035;-82
2022/12/10 22:48:39;;;;;;;84.43;25.93;;;0.60;99.90;;;;;;10296394;28;20034;-83
2022/12/10 22:53:40;;;;;;;85.73;26.67;;;0.60;99.90;;;;;;10292030;28;20046;-83
2022/12/10 22:58:42;;;;;;;100.70;29.70;;;0.60;99.90;;;;;;10288361;28;20031;-80
2022/12/10 23:03:42;;;;;;;82.27;25.33;;;0.60;99.90;;;;;;10295303;28;20041;-81
2022/12/10 23:08:43;;;;;;;91.33;27.30;;;0.60;99.90;;;;;;10294967;28;20375;-82
2022/12/10 23:13:44;;;;;;;76.80;22.77;;;0.60;99.90;;;;;;10291780;28;20578;-82
2022/12/10 23:18:49;;;;;;;83.87;24.03;;;0.60;99.90;;;;;;10288612;28;20049;-81
2022/12/10 23:23:49;;;;;;;78.27;24.37;;;0.60;99.90;;;;;;10291519;28;20109;-82
2022/12/10 23:28:50;;;;;;;65.40;21.17;;;0.60;99.90;;;;;;10290433;28;20046;-81
2022/12/10 23:33:51;;;;;;;72.10;24.57;;;0.60;99.90;;;;;;10301157;28;20125;-81
2022/12/10 23:38:52;;;;;;;76.30;21.87;;;0.60;99.90;;;;;;10297386;28;20145;-80
2022/12/10 23:43:53;;;;;;;60.57;19.80;;;0.60;99.90;;;;;;10291432;28;20027;-80
2022/12/10 23:48:54;;;;;;;60.17;21.20;;;0.50;99.90;;;;;;10297557;28;20027;-81
2022/12/10 23:53:54;;;;;;;58.93;20.67;;;0.60;99.90;;;;;;10318080;28;20168;-81
2022/12/10 23:58:55;;;;;;;66.63;21.47;;;0.50;99.90;;;;;;10322371;28;20785;-80
